Time;durP1;ratioP1;P1;durP2;ratioP2;P2;SDS_P1;SDS_P2;PMS_P1;PMS_P2;Temp;Humidity;BMP_temperature;BMP_pressure;BME280_temperature;BME280_humidity;BME280_pressure;Samples;Min_cycle;Max_cycle;Signal;HPM_P1;HPM_P2
2023/03/06 00:00:37;;;;;;;14.00;7.40;;;4.50;99.90;;;;;;5020189;28;20081;-80
2023/03/06 00:03:04;;;;;;;14.60;7.25;;;4.50;99.90;;;;;;5021526;28;20417;-80
2023/03/06 00:05:31;;;;;;;16.67;7.35;;;4.50;99.90;;;;;;5027312;28;20042;-80
2023/03/06 00:07:58;;;;;;;19.67;8.20;;;4.50;99.90;;;;;;5027383;28;20225;-79
2023/03/06 00:10:28;;;;;;;14.63;7.38;;;4.50;99.90;;;;;;5037413;28;20424;-80
2023/03/06 00:12:58;;;;;;;15.27;7.45;;;4.50;99.90;;;;;;5018294;28;20513;-80
2023/03/06 00:15:26;;;;;;;13.27;7.10;;;4.50;99.90;;;;;;5011995;28;20128;-81
2023/03/06 00:17:53;;;;;;;13.98;6.80;;;4.50;99.90;;;;;;5013454;28;20125;-81
2023/03/06 00:20:21;;;;;;;17.17;6.40;;;4.50;99.90;;;;;;5027618;28;20580;-83
2023/03/06 00:22:48;;;;;;;13.88;6.43;;;4.50;99.90;;;;;;5013893;28;20053;-81
2023/03/06 00:25:17;;;;;;;14.60;7.10;;;4.50;99.90;;;;;;5014502;28;20505;-79
2023/03/06 00:27:44;;;;;;;19.35;9.52;;;4.50;99.90;;;;;;5015349;28;20045;-81
2023/03/06 00:30:14;;;;;;;19.13;8.07;;;4.50;99.90;;;;;;5012112;28;20081;-82
2023/03/06 00:32:42;;;;;;;17.70;9.50;;;4.50;99.90;;;;;;5014900;28;20601;-81
2023/03/06 00:35:10;;;;;;;17.48;9.18;;;4.50;99.90;;;;;;5016218;28;20053;-82
2023/03/06 00:37:37;;;;;;;17.88;8.95;;;4.50;99.90;;;;;;5012630;28;20081;-81
2023/03/06 00:40:05;;;;;;;17.35;8.35;;;4.50;99.90;;;;;;5017024;28;20045;-81
2023/03/06 00:42:32;;;;;;;13.45;7.32;;;4.50;99.90;;;;;;5013435;28;20046;-81
2023/03/06 00:44:59;;;;;;;12.20;6.90;;;4.40;99.90;;;;;;5016982;28;20045;-81
2023/03/06 00:47:26;;;;;;;15.20;7.32;;;4.40;99.90;;;;;;5013453;28;20136;-82
2023/03/06 00:49:52;;;;;;;15.07;7.35;;;4.50;99.90;;;;;;5010428;28;20501;-81
2023/03/06 00:52:19;;;;;;;16.50;7.80;;;4.40;99.90;;;;;;5022688;28;20056;-82
2023/03/06 00:54:46;;;;;;;14.75;7.65;;;4.40;99.90;;;;;;5017287;28;20050;-82
2023/03/06 00:57:13;;;;;;;12.10;6.32;;;4.40;99.90;;;;;;5023516;28;20071;-81
2023/03/06 00:59:39;;;;;;;14.75;8.30;;;4.40;99.90;;;;;;5017338;28;20677;-80
2023/03/06 01:02:06;;;;;;;14.05;8.27;;;4.40;99.90;;;;;;5013593;28;20056;-80
2023/03/06 01:04:33;;;;;;;16.08;8.80;;;4.40;99.90;;;;;;5013050;28;20046;-80
2023/03/06 01:07:00;;;;;;;15.07;8.27;;;4.30;99.90;;;;;;5024590;28;20067;-81
2023/03/06 01:09:28;;;;;;;16.13;8.85;;;4.30;99.90;;;;;;5015244;28;20138;-82
2023/03/06 01:11:55;;;;;;;14.60;8.75;;;4.40;99.90;;;;;;5009351;28;20125;-80
2023/03/06 01:14:22;;;;;;;18.77;8.73;;;4.40;99.90;;;;;;5014743;28;20050;-81
2023/03/06 01:16:49;;;;;;;16.73;9.32;;;4.40;99.90;;;;;;5012662;28;20077;-81
2023/03/06 01:19:16;;;;;;;18.40;9.75;;;4.30;99.90;;;;;;5021520;28;20509;-81
2023/03/06 01:21:42;;;;;;;15.50;9.00;;;4.30;99.90;;;;;;5012506;28;20042;-81
2023/03/06 01:24:09;;;;;;;22.23;10.10;;;4.40;99.90;;;;;;5016877;28;20077;-82
2023/03/06 01:26:36;;;;;;;17.45;9.48;;;4.40;99.90;;;;;;5007380;28;20052;-81
2023/03/06 01:29:02;;;;;;;19.67;9.93;;;4.40;99.90;;;;;;5014452;28;20046;-81
2023/03/06 01:31:29;;;;;;;18.55;10.15;;;4.40;99.90;;;;;;5012887;28;20057;-81
2023/03/06 01:33:56;;;;;;;19.15;9.15;;;4.40;99.90;;;;;;5021095;28;20061;-81
2023/03/06 01:36:23;;;;;;;15.35;8.82;;;4.40;99.90;;;;;;5020471;28;20512;-81
2023/03/06 01:38:49;;;;;;;15.75;8.85;;;4.40;99.90;;;;;;5028814;28;20074;-83
2023/03/06 01:41:16;;;;;;;20.50;10.43;;;4.40;99.90;;;;;;5011564;28;20056;-82
2023/03/06 01:43:45;;;;;;;19.38;9.45;;;4.50;99.90;;;;;;5018658;28;20042;-81
2023/03/06 01:46:43;;;;;;;21.17;10.30;;;4.50;99.90;;;;;;5020478;28;20575;-81
2023/03/06 01:49:15;;;;;;;19.23;10.05;;;4.50;99.90;;;;;;5013436;28;20050;-82
2023/03/06 01:51:50;;;;;;;20.05;10.50;;;4.50;99.90;;;;;;5012663;28;20077;-81
2023/03/06 01:54:33;;;;;;;20.88;11.43;;;4.50;99.90;;;;;;5013387;28;20049;-81
2023/03/06 01:57:06;;;;;;;20.92;10.90;;;4.50;99.90;;;;;;5013826;28;20077;-80
2023/03/06 01:59:36;;;;;;;21.58;10.80;;;4.50;99.90;;;;;;5016201;28;20046;-81
2023/03/06 02:02:05;;;;;;;21.70;11.40;;;4.50;99.90;;;;;;5016843;28;20046;-81
2023/03/06 02:04:32;;;;;;;21.35;11.68;;;4.50;99.90;;;;;;5014384;28;20153;-80
2023/03/06 02:07:03;;;;;;;22.77;12.25;;;4.50;99.90;;;;;;5019615;28;20129;-80
2023/03/06 02:09:31;;;;;;;26.63;11.85;;;4.50;99.90;;;;;;5019110;28;20412;-81
2023/03/06 02:12:00;;;;;;;25.58;12.85;;;4.50;99.90;;;;;;5022979;28;20071;-81
2023/03/06 02:14:27;;;;;;;27.50;12.13;;;4.50;99.90;;;;;;5016256;28;20058;-80
2023/03/06 02:16:54;;;;;;;24.55;11.82;;;4.50;99.90;;;;;;5028243;28;20140;-81
2023/03/06 02:19:45;;;;;;;22.15;11.82;;;4.50;99.90;;;;;;5021759;28;20527;-81
2023/03/06 02:22:12;;;;;;;24.63;11.93;;;4.60;99.90;;;;;;5017425;28;20054;-81
2023/03/06 02:25:00;;;;;;;22.83;11.52;;;4.50;99.90;;;;;;5014546;28;20085;-81
2023/03/06 02:27:27;;;;;;;24.52;12.95;;;4.60;99.90;;;;;;5013110;28;20054;-81
2023/03/06 02:29:54;;;;;;;23.27;11.85;;;4.60;99.90;;;;;;5017043;28;20049;-81
2023/03/06 02:32:20;;;;;;;25.17;11.40;;;4.60;99.90;;;;;;5016505;28;20071;-81
2023/03/06 02:34:54;;;;;;;22.27;12.05;;;4.60;99.90;;;;;;5016797;28;20113;-81
2023/03/06 02:37:23;;;;;;;22.58;11.50;;;4.60;99.90;;;;;;5013747;28;20060;-81
2023/03/06 02:39:57;;;;;;;21.98;11.50;;;4.60;99.90;;;;;;5016367;28;20056;-81
2023/03/06 02:42:27;;;;;;;23.38;11.73;;;4.60;99.90;;;;;;5018694;28;20414;-80
2023/03/06 02:44:56;;;;;;;27.58;12.60;;;4.60;99.90;;;;;;5028029;28;20129;-80
2023/03/06 02:47:22;;;;;;;22.13;11.25;;;4.60;99.90;;;;;;5015302;28;20129;-82
2023/03/06 02:49:49;;;;;;;25.10;11.55;;;4.60;99.90;;;;;;5016512;28;20046;-80
2023/03/06 02:52:16;;;;;;;25.67;11.45;;;4.50;99.90;;;;;;5018027;28;20060;-80
2023/03/06 02:54:42;;;;;;;24.88;12.25;;;4.60;99.90;;;;;;5019324;28;20054;-82
2023/03/06 02:57:09;;;;;;;19.95;10.95;;;4.60;99.90;;;;;;5013079;28;20080;-80
2023/03/06 02:59:36;;;;;;;21.90;11.35;;;4.60;99.90;;;;;;5019275;28;20057;-81
2023/03/06 03:02:03;;;;;;;24.48;12.40;;;4.60;99.90;;;;;;5018692;28;20056;-80
2023/03/06 03:04:29;;;;;;;25.23;12.68;;;4.60;99.90;;;;;;5022801;28;20049;-81
2023/03/06 03:06:56;;;;;;;30.52;13.63;;;4.60;99.90;;;;;;5023163;28;20108;-81
2023/03/06 03:09:23;;;;;;;28.25;12.82;;;4.60;99.90;;;;;;5016109;28;20042;-81
2023/03/06 03:11:49;;;;;;;27.13;14.52;;;4.60;99.90;;;;;;5015285;28;20052;-81
2023/03/06 03:14:16;;;;;;;30.52;14.25;;;4.60;99.90;;;;;;5016026;28;20411;-81
2023/03/06 03:16:44;;;;;;;24.15;11.70;;;4.60;99.90;;;;;;5015275;28;20069;-80
2023/03/06 03:19:10;;;;;;;32.97;13.52;;;4.60;99.90;;;;;;5015660;28;20050;-81
2023/03/06 03:21:39;;;;;;;27.52;13.05;;;4.60;99.90;;;;;;5018128;28;20058;-81
2023/03/06 03:24:06;;;;;;;30.42;13.85;;;4.60;99.90;;;;;;5008750;28;20142;-82
2023/03/06 03:26:33;;;;;;;24.60;12.05;;;4.60;99.90;;;;;;5015607;28;20056;-81
2023/03/06 03:29:00;;;;;;;24.08;12.45;;;4.70;99.90;;;;;;5012692;28;20054;-79
2023/03/06 03:31:26;;;;;;;24.83;12.52;;;4.70;99.90;;;;;;5018647;28;20052;-81
2023/03/06 03:33:53;;;;;;;31.55;12.75;;;4.70;99.90;;;;;;5013802;28;20466;-81
2023/03/06 03:36:20;;;;;;;26.85;13.35;;;4.70;99.90;;;;;;5020352;28;20053;-79
2023/03/06 03:38:46;;;;;;;26.35;13.68;;;4.60;99.90;;;;;;5022115;28;20049;-82
2023/03/06 03:41:13;;;;;;;26.33;14.32;;;4.60;99.90;;;;;;5017706;28;20071;-81
2023/03/06 03:43:41;;;;;;;34.97;15.63;;;4.70;99.90;;;;;;5011679;28;20052;-80
2023/03/06 03:46:08;;;;;;;32.00;16.52;;;4.70;99.90;;;;;;5014909;28;20042;-81
2023/03/06 03:48:34;;;;;;;37.33;17.60;;;4.70;99.90;;;;;;5020200;28;20050;-81
2023/03/06 03:51:11;;;;;;;33.58;17.50;;;4.70;99.90;;;;;;5018136;28;20049;-80
2023/03/06 03:53:37;;;;;;;37.92;17.52;;;4.60;99.90;;;;;;5013933;28;20056;-81
2023/03/06 03:56:05;;;;;;;34.38;17.60;;;4.60;99.90;;;;;;5014797;28;20076;-80
2023/03/06 03:58:31;;;;;;;37.40;17.75;;;4.60;99.90;;;;;;5016988;28;20058;-81
2023/03/06 04:00:58;;;;;;;39.42;18.02;;;4.60;99.90;;;;;;5014822;28;20600;-80
2023/03/06 04:03:25;;;;;;;34.33;16.88;;;4.60;99.90;;;;;;5016148;28;20050;-80
2023/03/06 04:05:54;;;;;;;41.63;18.85;;;4.60;99.90;;;;;;5012952;28;20508;-81
2023/03/06 04:08:20;;;;;;;44.15;19.05;;;4.60;99.90;;;;;;5012691;28;20046;-81
2023/03/06 04:10:47;;;;;;;33.50;17.02;;;4.60;99.90;;;;;;5014445;28;20041;-81
2023/03/06 04:13:14;;;;;;;39.53;18.23;;;4.60;99.90;;;;;;5017261;28;20067;-81
2023/03/06 04:15:40;;;;;;;40.25;20.02;;;4.60;99.90;;;;;;5012038;28;20045;-81
2023/03/06 04:18:07;;;;;;;41.40;19.70;;;4.60;99.90;;;;;;5013807;28;20080;-80
2023/03/06 04:20:34;;;;;;;38.63;18.75;;;4.60;99.90;;;;;;5014139;28;20050;-80
2023/03/06 04:23:00;;;;;;;38.97;18.70;;;4.60;99.90;;;;;;5014691;28;20050;-81
2023/03/06 04:25:27;;;;;;;38.25;17.42;;;4.60;99.90;;;;;;5019797;28;20052;-80
2023/03/06 04:27:54;;;;;;;32.15;16.55;;;4.60;99.90;;;;;;5017102;28;20418;-80
2023/03/06 04:30:20;;;;;;;36.00;17.02;;;4.60;99.90;;;;;;5009991;28;20047;-82
2023/03/06 04:32:47;;;;;;;35.25;15.60;;;4.60;99.90;;;;;;5015948;28;20042;-81
2023/03/06 04:35:14;;;;;;;32.28;15.45;;;4.60;99.90;;;;;;5013336;28;20057;-80
2023/03/06 04:37:41;;;;;;;36.58;17.35;;;4.60;99.90;;;;;;5013820;28;20124;-81
2023/03/06 04:40:16;;;;;;;33.00;15.85;;;4.60;99.90;;;;;;5016772;28;20045;-81
2023/03/06 04:42:43;;;;;;;34.35;17.77;;;4.60;99.90;;;;;;5014052;28;20053;-80
2023/03/06 04:45:10;;;;;;;36.70;17.27;;;4.60;99.90;;;;;;5018336;28;20084;-80
2023/03/06 04:47:37;;;;;;;35.75;17.45;;;4.60;99.90;;;;;;5019798;28;20070;-81
2023/03/06 04:50:04;;;;;;;41.20;18.92;;;4.60;99.90;;;;;;5014048;28;20133;-81
2023/03/06 04:52:31;;;;;;;38.10;18.77;;;4.60;99.90;;;;;;5031388;28;20406;-80
2023/03/06 04:54:57;;;;;;;45.92;20.27;;;4.70;99.90;;;;;;5010562;28;20520;-81
2023/03/06 04:57:24;;;;;;;39.53;18.75;;;4.70;99.90;;;;;;5017031;28;20520;-81
2023/03/06 04:59:51;;;;;;;45.13;20.23;;;4.70;99.90;;;;;;5011928;28;20765;-81
2023/03/06 05:02:17;;;;;;;35.80;18.08;;;4.70;99.90;;;;;;5020878;28;20124;-81
2023/03/06 05:04:44;;;;;;;38.90;19.55;;;4.70;99.90;;;;;;5008107;28;20513;-81
2023/03/06 05:07:11;;;;;;;36.80;18.00;;;4.70;99.90;;;;;;5010436;28;20042;-81
2023/03/06 05:09:38;;;;;;;35.35;17.05;;;4.70;99.90;;;;;;5010547;28;20042;-81
2023/03/06 05:12:05;;;;;;;34.50;17.45;;;4.70;99.90;;;;;;5015513;28;20070;-81
2023/03/06 05:14:31;;;;;;;33.53;17.08;;;4.70;99.90;;;;;;5012708;28;20046;-81
2023/03/06 05:16:58;;;;;;;34.17;16.92;;;4.60;99.90;;;;;;5012256;28;20046;-80
2023/03/06 05:19:25;;;;;;;32.47;15.73;;;4.60;99.90;;;;;;5013826;28;20050;-81
2023/03/06 05:21:51;;;;;;;33.65;15.07;;;4.60;99.90;;;;;;5011033;28;20056;-80
2023/03/06 05:24:18;;;;;;;33.47;15.60;;;4.60;99.90;;;;;;5014276;28;20046;-81
2023/03/06 05:26:44;;;;;;;31.55;16.75;;;4.50;99.90;;;;;;5008658;28;20049;-81
2023/03/06 05:29:11;;;;;;;33.00;15.82;;;4.50;99.90;;;;;;5016636;28;20052;-79
2023/03/06 05:31:38;;;;;;;32.60;15.68;;;4.50;99.90;;;;;;5012412;28;20065;-80
2023/03/06 05:34:05;;;;;;;38.13;16.13;;;4.50;99.90;;;;;;5016114;28;20704;-80
2023/03/06 05:36:31;;;;;;;32.65;15.15;;;4.50;99.90;;;;;;5010329;28;20416;-81
2023/03/06 05:38:58;;;;;;;34.67;15.85;;;4.50;99.90;;;;;;5018193;28;20056;-80
2023/03/06 05:41:25;;;;;;;36.53;16.77;;;4.50;99.90;;;;;;5011119;28;20106;-81
2023/03/06 05:43:52;;;;;;;33.67;16.00;;;4.50;99.90;;;;;;5016595;28;20082;-81
2023/03/06 05:46:19;;;;;;;34.45;16.33;;;4.50;99.90;;;;;;5013183;28;20046;-81
2023/03/06 05:48:46;;;;;;;32.45;14.93;;;4.60;99.90;;;;;;5018271;28;20052;-81
2023/03/06 05:51:13;;;;;;;29.88;14.15;;;4.60;99.90;;;;;;5019511;28;20042;-81
2023/03/06 05:53:40;;;;;;;32.53;14.93;;;4.60;99.90;;;;;;5013989;28;20042;-82
2023/03/06 05:56:10;;;;;;;31.58;15.60;;;4.60;99.90;;;;;;5037077;28;20071;-80
2023/03/06 05:58:37;;;;;;;32.20;15.85;;;4.60;99.90;;;;;;5019772;28;20060;-81
2023/03/06 06:01:15;;;;;;;36.22;16.33;;;4.60;99.90;;;;;;5043453;28;20045;-80
2023/03/06 06:03:42;;;;;;;32.08;14.85;;;4.60;99.90;;;;;;5020314;28;20045;-81
2023/03/06 06:06:11;;;;;;;29.92;14.52;;;4.50;99.90;;;;;;5016756;28;20104;-81
2023/03/06 06:08:38;;;;;;;30.67;15.82;;;4.60;99.90;;;;;;5033011;28;20049;-81
2023/03/06 06:11:06;;;;;;;27.75;14.90;;;4.50;99.90;;;;;;5017649;28;20041;-82
2023/03/06 06:13:32;;;;;;;28.50;14.02;;;4.60;99.90;;;;;;5033725;28;20152;-80
2023/03/06 06:15:59;;;;;;;27.08;12.35;;;4.50;99.90;;;;;;5021015;28;20050;-80
2023/03/06 06:18:26;;;;;;;25.40;12.40;;;4.50;99.90;;;;;;5019712;28;20085;-81
2023/03/06 06:20:52;;;;;;;24.88;13.73;;;4.50;99.90;;;;;;5017882;28;20698;-81
2023/03/06 06:23:21;;;;;;;23.92;12.80;;;4.50;99.90;;;;;;5020494;28;20050;-81
2023/03/06 06:25:48;;;;;;;24.90;13.10;;;4.60;99.90;;;;;;5030816;28;20048;-81
2023/03/06 06:28:15;;;;;;;28.35;14.75;;;4.60;99.90;;;;;;5010938;28;20042;-80
2023/03/06 06:30:41;;;;;;;24.48;13.20;;;4.50;99.90;;;;;;5011875;28;20052;-82
2023/03/06 06:33:08;;;;;;;33.35;13.73;;;4.50;99.90;;;;;;5027245;28;20052;-80
2023/03/06 06:35:35;;;;;;;27.60;12.95;;;4.50;99.90;;;;;;5018800;28;20041;-80
2023/03/06 06:38:02;;;;;;;26.33;13.02;;;4.40;99.90;;;;;;5014339;28;20108;-80
2023/03/06 06:40:29;;;;;;;24.00;12.70;;;4.50;99.90;;;;;;5015096;28;20056;-81
2023/03/06 06:42:56;;;;;;;21.27;11.55;;;4.40;99.90;;;;;;5015295;28;20062;-82
2023/03/06 06:45:22;;;;;;;29.65;13.18;;;4.40;99.90;;;;;;5015588;28;20046;-81
2023/03/06 06:47:49;;;;;;;20.75;11.65;;;4.40;99.90;;;;;;5016231;28;20052;-80
2023/03/06 06:50:16;;;;;;;24.70;12.40;;;4.40;99.90;;;;;;5014731;28;20038;-80
2023/03/06 06:52:42;;;;;;;21.77;10.90;;;4.40;99.90;;;;;;5016623;28;20052;-81
2023/03/06 06:55:10;;;;;;;20.90;11.75;;;4.50;99.90;;;;;;5023171;28;20050;-80
2023/03/06 06:57:38;;;;;;;22.60;11.48;;;4.50;99.90;;;;;;5019142;28;20061;-81
2023/03/06 07:00:05;;;;;;;20.75;12.35;;;4.50;99.90;;;;;;5019194;28;20136;-81
2023/03/06 07:02:32;;;;;;;19.35;11.02;;;4.50;99.90;;;;;;5023168;28;20046;-81
2023/03/06 07:04:59;;;;;;;23.95;11.25;;;4.50;99.90;;;;;;5030885;28;20073;-80
2023/03/06 07:07:33;;;;;;;18.77;10.55;;;4.50;99.90;;;;;;5037551;28;20133;-80
2023/03/06 07:10:00;;;;;;;18.40;11.00;;;4.60;99.90;;;;;;5027020;28;20050;-80
2023/03/06 07:12:31;;;;;;;20.83;11.90;;;4.60;99.90;;;;;;5029133;28;20053;-82
2023/03/06 07:14:57;;;;;;;19.42;11.13;;;4.60;99.90;;;;;;5030145;28;20058;-81
2023/03/06 07:17:24;;;;;;;27.98;12.07;;;4.60;99.90;;;;;;5014837;28;20072;-82
2023/03/06 07:19:51;;;;;;;26.48;12.48;;;4.60;99.90;;;;;;5026879;28;20132;-81
2023/03/06 07:22:17;;;;;;;22.83;11.80;;;4.60;99.90;;;;;;5023268;28;20065;-82
2023/03/06 07:24:44;;;;;;;20.38;11.18;;;4.60;99.90;;;;;;5016490;28;20587;-79
2023/03/06 07:27:10;;;;;;;23.67;12.30;;;4.60;99.90;;;;;;5018593;28;20042;-81
2023/03/06 07:29:37;;;;;;;22.50;11.68;;;4.60;99.90;;;;;;5034857;28;20050;-80
2023/03/06 07:32:04;;;;;;;19.65;11.32;;;4.60;99.90;;;;;;5017866;28;20042;-81
2023/03/06 07:34:31;;;;;;;19.08;10.13;;;4.70;99.90;;;;;;5019338;28;20129;-81
2023/03/06 07:36:57;;;;;;;22.63;11.80;;;4.70;99.90;;;;;;5020435;28;20049;-81
2023/03/06 07:39:24;;;;;;;19.25;11.32;;;4.70;99.90;;;;;;5021600;28;20051;-82
2023/03/06 07:41:51;;;;;;;25.65;12.30;;;4.80;99.90;;;;;;5027448;28;20132;-80
2023/03/06 07:44:17;;;;;;;23.75;11.95;;;4.80;99.90;;;;;;5027892;28;20054;-81
2023/03/06 07:46:44;;;;;;;21.77;12.77;;;4.90;99.90;;;;;;5019854;28;20073;-81
2023/03/06 07:49:11;;;;;;;21.60;12.18;;;4.90;99.90;;;;;;5023014;28;20042;-81
2023/03/06 07:51:37;;;;;;;20.88;12.63;;;5.00;99.90;;;;;;5018084;28;20053;-80
2023/03/06 07:54:04;;;;;;;24.00;12.60;;;5.00;99.90;;;;;;5025659;28;20048;-81
2023/03/06 07:56:33;;;;;;;23.35;13.48;;;5.00;99.90;;;;;;5026431;28;20509;-81
2023/03/06 07:59:00;;;;;;;23.67;12.57;;;5.10;99.90;;;;;;5024106;28;20058;-81
2023/03/06 08:01:27;;;;;;;20.08;11.88;;;5.10;99.90;;;;;;5037242;28;20050;-81
2023/03/06 08:03:54;;;;;;;21.55;12.27;;;5.20;99.90;;;;;;5012626;28;20505;-81
2023/03/06 08:06:26;;;;;;;24.95;12.88;;;5.20;99.90;;;;;;5020898;28;20483;-81
2023/03/06 08:08:55;;;;;;;19.83;10.98;;;5.20;99.90;;;;;;5037819;28;20061;-82
2023/03/06 08:11:26;;;;;;;22.00;12.23;;;5.30;99.90;;;;;;5009375;28;20093;-81
2023/03/06 08:13:54;;;;;;;19.73;11.95;;;5.40;99.90;;;;;;5009924;28;20122;-81
2023/03/06 08:16:23;;;;;;;21.85;12.38;;;5.40;99.90;;;;;;5010470;28;20403;-80
2023/03/06 08:18:50;;;;;;;20.35;11.75;;;5.40;99.90;;;;;;5010615;28;20061;-80
2023/03/06 08:21:19;;;;;;;21.25;11.55;;;5.40;99.90;;;;;;5012993;28;20449;-80
2023/03/06 08:23:47;;;;;;;17.95;11.30;;;5.50;99.90;;;;;;5019628;28;20413;-81
2023/03/06 08:26:23;;;;;;;22.88;11.77;;;5.50;99.90;;;;;;5016049;28;20113;-80
2023/03/06 08:28:51;;;;;;;20.90;11.73;;;5.50;99.90;;;;;;5018713;28;20057;-81
2023/03/06 08:31:41;;;;;;;21.05;10.90;;;5.50;99.90;;;;;;5016467;28;20042;-80
2023/03/06 08:34:11;;;;;;;19.35;10.82;;;5.60;99.90;;;;;;5018338;28;20038;-80
2023/03/06 08:36:38;;;;;;;20.63;12.18;;;5.70;99.90;;;;;;5014641;28;20050;-82
2023/03/06 08:39:05;;;;;;;20.75;11.70;;;5.80;99.90;;;;;;5014636;28;20054;-82
2023/03/06 08:41:33;;;;;;;20.88;11.25;;;5.90;99.90;;;;;;5022246;28;20046;-80
2023/03/06 08:43:59;;;;;;;21.95;12.40;;;5.90;99.90;;;;;;5018006;28;20049;-82
2023/03/06 08:46:28;;;;;;;25.45;11.90;;;6.00;99.90;;;;;;5013032;28;20052;-81
2023/03/06 08:48:55;;;;;;;19.77;10.98;;;6.10;99.90;;;;;;5015004;28;20041;-83
2023/03/06 08:51:22;;;;;;;19.60;10.90;;;6.20;99.90;;;;;;5017620;28;20042;-82
2023/03/06 08:53:50;;;;;;;19.08;10.50;;;6.20;99.90;;;;;;5007827;28;20041;-82
2023/03/06 08:56:20;;;;;;;17.80;11.05;;;6.20;99.90;;;;;;5009313;28;20321;-82
2023/03/06 08:58:47;;;;;;;23.00;10.48;;;6.30;99.90;;;;;;5014149;28;20060;-82
2023/03/06 09:01:19;;;;;;;18.65;11.07;;;6.40;99.90;;;;;;5008851;28;20050;-82
2023/03/06 09:03:46;;;;;;;19.63;11.35;;;6.50;99.90;;;;;;5027915;28;20068;-81
2023/03/06 09:06:13;;;;;;;18.30;11.30;;;6.50;99.90;;;;;;5014299;28;20053;-81
2023/03/06 09:08:41;;;;;;;21.88;12.07;;;6.60;99.90;;;;;;5013613;28;20121;-82
2023/03/06 09:11:10;;;;;;;17.88;11.07;;;6.70;99.90;;;;;;5017127;28;20046;-82
2023/03/06 09:13:37;;;;;;;19.63;11.05;;;6.70;99.90;;;;;;5020395;28;20580;-85
2023/03/06 09:16:05;;;;;;;17.77;10.85;;;6.90;99.90;;;;;;5018325;28;20042;-82
2023/03/06 09:18:32;;;;;;;19.85;11.38;;;6.90;99.90;;;;;;5021769;28;20512;-83
2023/03/06 09:20:58;;;;;;;19.73;10.68;;;6.90;99.90;;;;;;5011473;28;20050;-83
2023/03/06 09:23:25;;;;;;;20.17;11.07;;;6.90;99.90;;;;;;5019967;28;20417;-82
2023/03/06 09:25:57;;;;;;;17.73;11.02;;;7.00;99.90;;;;;;5008833;28;20052;-83
2023/03/06 09:28:24;;;;;;;20.98;11.60;;;7.00;99.90;;;;;;5014256;28;20053;-82
2023/03/06 09:30:50;;;;;;;16.45;10.43;;;7.10;99.90;;;;;;5010106;28;20053;-82
2023/03/06 09:33:18;;;;;;;18.02;11.13;;;7.10;99.90;;;;;;5011973;28;20088;-82
2023/03/06 09:35:55;;;;;;;19.58;11.30;;;7.10;99.90;;;;;;5016352;28;20049;-82
2023/03/06 09:38:26;;;;;;;20.05;10.98;;;7.10;99.90;;;;;;5011402;28;20046;-82
2023/03/06 09:41:07;;;;;;;17.65;10.55;;;7.10;99.90;;;;;;5010798;28;20114;-82
2023/03/06 09:43:47;;;;;;;18.73;11.15;;;7.10;99.90;;;;;;5008453;28;20046;-82
2023/03/06 09:46:31;;;;;;;18.95;11.07;;;7.10;99.90;;;;;;5016648;28;20486;-81
2023/03/06 09:49:12;;;;;;;18.92;10.73;;;7.10;99.90;;;;;;5011228;28;20054;-82
2023/03/06 09:52:05;;;;;;;20.45;10.98;;;7.10;99.90;;;;;;5027772;28;20120;-82
2023/03/06 09:55:00;;;;;;;22.15;10.70;;;7.10;99.90;;;;;;5014172;28;20046;-82
2023/03/06 09:57:31;;;;;;;19.05;10.55;;;7.00;99.90;;;;;;5005752;28;20058;-82
2023/03/06 10:00:04;;;;;;;21.73;11.90;;;7.00;99.90;;;;;;5015833;28;20071;-82
2023/03/06 10:02:52;;;;;;;18.58;11.55;;;6.90;99.90;;;;;;5030043;28;20141;-82
2023/03/06 10:05:24;;;;;;;16.40;10.15;;;6.90;99.90;;;;;;5019910;28;20045;-82
2023/03/06 10:08:05;;;;;;;19.55;11.35;;;6.80;99.90;;;;;;5008921;28;20052;-82
2023/03/06 10:10:51;;;;;;;21.05;10.98;;;6.80;99.90;;;;;;5019754;28;20163;-81
2023/03/06 10:13:45;;;;;;;20.83;12.27;;;6.80;99.90;;;;;;5019279;28;20073;-82
2023/03/06 10:16:26;;;;;;;20.95;12.02;;;6.80;99.90;;;;;;5029548;28;20042;-84
2023/03/06 10:19:02;;;;;;;17.45;11.13;;;6.80;99.90;;;;;;5016466;28;20140;-82
2023/03/06 10:21:41;;;;;;;23.55;12.57;;;6.70;99.90;;;;;;5013062;28;20111;-82
2023/03/06 10:24:26;;;;;;;19.37;10.67;;;6.70;99.90;;;;;;5015518;28;20046;-85
2023/03/06 10:27:03;;;;;;;18.90;10.27;;;6.70;99.90;;;;;;5010719;28;20598;-81
2023/03/06 10:29:52;;;;;;;19.08;11.15;;;6.70;99.90;;;;;;5011573;28;20050;-82
2023/03/06 10:32:56;;;;;;;18.30;11.82;;;6.70;99.90;;;;;;5038664;28;20048;-82
2023/03/06 10:35:50;;;;;;;16.95;9.98;;;6.80;99.90;;;;;;5016468;28;20045;-81
2023/03/06 10:38:22;;;;;;;17.38;10.45;;;6.80;99.90;;;;;;5014112;28;20129;-82
2023/03/06 10:41:06;;;;;;;17.95;10.60;;;6.80;99.90;;;;;;5020257;28;20089;-82
2023/03/06 10:43:34;;;;;;;18.20;10.82;;;6.90;99.90;;;;;;5023397;28;20046;-82
2023/03/06 10:46:03;;;;;;;18.10;10.13;;;7.00;99.90;;;;;;5031822;28;20101;-82
2023/03/06 10:48:34;;;;;;;20.35;11.85;;;7.00;99.90;;;;;;5024264;28;20141;-82
2023/03/06 10:51:22;;;;;;;19.27;12.07;;;7.10;99.90;;;;;;5031972;28;20101;-81
2023/03/06 10:54:02;;;;;;;19.85;11.35;;;7.20;99.90;;;;;;5017899;28;20072;-80
2023/03/06 10:56:32;;;;;;;20.10;11.27;;;7.30;99.90;;;;;;5015670;28;20073;-81
2023/03/06 10:59:05;;;;;;;22.60;11.57;;;7.30;99.90;;;;;;5024875;28;20056;-81
2023/03/06 11:01:32;;;;;;;18.40;11.38;;;7.40;99.90;;;;;;5016454;28;20429;-82
2023/03/06 11:04:22;;;;;;;19.83;11.25;;;7.50;99.90;;;;;;5015453;28;20050;-84
2023/03/06 11:07:05;;;;;;;17.00;10.55;;;7.60;99.90;;;;;;5008714;28;20057;-79
2023/03/06 11:09:32;;;;;;;18.73;11.73;;;7.60;99.90;;;;;;5008516;28;20044;-81
2023/03/06 11:12:20;;;;;;;19.05;11.27;;;7.70;99.90;;;;;;5007896;28;20045;-80
2023/03/06 11:14:46;;;;;;;16.13;10.00;;;7.70;99.90;;;;;;5024767;28;20548;-81
2023/03/06 11:17:28;;;;;;;18.90;10.35;;;7.70;99.90;;;;;;5007671;28;20053;-82
2023/03/06 11:20:13;;;;;;;19.55;10.88;;;7.80;99.90;;;;;;5012606;28;20050;-83
2023/03/06 11:22:41;;;;;;;15.25;9.80;;;7.80;99.90;;;;;;5046138;28;20053;-83
2023/03/06 11:25:11;;;;;;;15.20;9.73;;;7.80;99.90;;;;;;5031569;28;20072;-81
2023/03/06 11:27:42;;;;;;;13.82;8.60;;;7.90;99.90;;;;;;5028875;28;20049;-83
2023/03/06 11:30:22;;;;;;;13.45;8.85;;;8.00;99.90;;;;;;5034499;28;20338;-85
2023/03/06 11:32:57;;;;;;;12.88;8.93;;;8.00;99.90;;;;;;5034340;28;20040;-82
2023/03/06 11:35:33;;;;;;;12.57;7.93;;;8.10;99.90;;;;;;5031914;28;20101;-84
2023/03/06 11:38:15;;;;;;;13.02;8.35;;;8.10;99.90;;;;;;5030479;28;20050;-83
2023/03/06 11:40:50;;;;;;;13.20;8.43;;;8.10;99.90;;;;;;5028773;28;20068;-82
2023/03/06 11:43:42;;;;;;;13.32;8.07;;;8.10;99.90;;;;;;5026285;28;20134;-83
2023/03/06 11:46:29;;;;;;;14.57;8.50;;;8.20;99.90;;;;;;5024035;28;20049;-83
2023/03/06 11:49:15;;;;;;;16.65;7.78;;;8.20;99.90;;;;;;5019469;28;20133;-83
2023/03/06 11:51:50;;;;;;;16.45;8.63;;;8.20;99.90;;;;;;5023426;28;20065;-83
2023/03/06 11:54:16;;;;;;;15.82;8.25;;;8.30;99.90;;;;;;5024205;28;20145;-84
2023/03/06 11:56:55;;;;;;;13.10;8.15;;;8.30;99.90;;;;;;5029453;28;20054;-81
2023/03/06 11:59:49;;;;;;;12.43;7.28;;;8.30;99.90;;;;;;5041253;28;20105;-84
2023/03/06 12:02:41;;;;;;;12.73;7.28;;;8.20;99.90;;;;;;5030763;28;20054;-83
2023/03/06 12:05:37;;;;;;;10.70;7.00;;;8.20;99.90;;;;;;5030839;28;20084;-82
2023/03/06 12:08:48;;;;;;;10.07;5.95;;;8.20;99.90;;;;;;5030282;28;20046;-81
2023/03/06 12:11:45;;;;;;;11.73;6.78;;;8.20;99.90;;;;;;5012957;28;20049;-84
2023/03/06 12:14:36;;;;;;;9.20;6.00;;;8.40;99.90;;;;;;5033112;28;20848;-82
2023/03/06 12:17:06;;;;;;;9.35;6.00;;;8.50;99.90;;;;;;5022683;28;20057;-83
2023/03/06 12:19:58;;;;;;;8.20;5.28;;;8.60;99.90;;;;;;5039724;28;20452;-82
2023/03/06 12:22:51;;;;;;;10.68;6.38;;;8.60;99.90;;;;;;5024368;28;20056;-82
2023/03/06 12:25:32;;;;;;;9.45;5.43;;;8.70;99.90;;;;;;5016288;28;20046;-82
2023/03/06 12:28:32;;;;;;;9.50;5.90;;;8.80;99.90;;;;;;5022873;28;20042;-81
2023/03/06 12:31:31;;;;;;;8.65;5.35;;;8.90;99.90;;;;;;5016393;28;20076;-81
2023/03/06 12:33:58;;;;;;;9.63;6.13;;;8.90;99.90;;;;;;4993397;28;20099;-82
2023/03/06 12:36:45;;;;;;;7.65;5.25;;;9.00;99.90;;;;;;5019191;28;20071;-82
2023/03/06 12:39:24;;;;;;;6.45;4.60;;;9.00;99.90;;;;;;5020912;28;20042;-82
2023/03/06 12:42:17;;;;;;;10.32;5.97;;;9.00;99.90;;;;;;5018691;28;20071;-81
2023/03/06 12:44:55;;;;;;;8.60;5.75;;;9.00;99.90;;;;;;5021448;28;20057;-83
2023/03/06 12:47:26;;;;;;;8.27;6.00;;;9.10;99.90;;;;;;5023496;28;20128;-82
2023/03/06 12:50:07;;;;;;;7.47;5.03;;;9.10;99.90;;;;;;5019040;28;20049;-78
2023/03/06 12:52:34;;;;;;;8.00;5.43;;;9.10;99.90;;;;;;5026229;28;20048;-83
2023/03/06 12:55:05;;;;;;;9.20;5.90;;;9.10;99.90;;;;;;5024634;28;20069;-83
2023/03/06 12:57:32;;;;;;;9.70;5.43;;;9.10;99.90;;;;;;5035184;28;20067;-83
2023/03/06 12:59:59;;;;;;;11.73;6.15;;;9.00;99.90;;;;;;5037677;28;20053;-82